createdAt,value
2018-11-04T00:01:39.646Z,102166.01
2018-11-04T00:04:09.124Z,102165.56
2018-11-04T00:06:38.314Z,102168.64
2018-11-04T00:09:09.377Z,102165.09
2018-11-04T00:11:38.549Z,102177.88
2018-11-04T00:14:08.490Z,102168.16
2018-11-04T00:16:37.981Z,102161.52
2018-11-04T00:19:07.105Z,102160.16
2018-11-04T00:21:36.373Z,102159.30
2018-11-04T00:24:06.108Z,102162.80
2018-11-04T00:26:35.285Z,102157.08
2018-11-04T00:29:04.599Z,102163.25
2018-11-04T00:31:34.086Z,102162.45
2018-11-04T00:34:03.289Z,102169.09
2018-11-04T00:36:32.380Z,102169.07
2018-11-04T00:39:01.895Z,102167.33
2018-11-04T00:41:31.093Z,102165.58
2018-11-04T00:44:00.182Z,102173.88
2018-11-04T00:46:29.713Z,102172.52
2018-11-04T00:48:58.795Z,102172.05
2018-11-04T00:51:27.973Z,102174.17
2018-11-04T00:53:57.722Z,102163.50
2018-11-04T00:56:26.949Z,102164.80
2018-11-04T00:58:56.081Z,102163.03
2018-11-04T01:01:25.749Z,102166.56
2018-11-04T01:03:54.815Z,102163.87
2018-11-04T01:06:23.914Z,102167.00
2018-11-04T01:08:53.432Z,102169.64
2018-11-04T01:11:22.582Z,102168.25
2018-11-04T01:13:51.949Z,102168.70
2018-11-04T01:16:21.481Z,102163.44
2018-11-04T01:18:50.590Z,102163.03
2018-11-04T01:21:19.770Z,102164.79
2018-11-04T01:23:49.381Z,102159.07
2018-11-04T01:26:19.453Z,102162.60
2018-11-04T01:28:48.603Z,102161.73
2018-11-04T01:31:18.025Z,102161.72
2018-11-04T01:33:47.310Z,102165.23
2018-11-04T01:36:16.514Z,102156.41
2018-11-04T01:38:46.109Z,102154.64
2018-11-04T01:41:15.253Z,102147.12
2018-11-04T01:43:44.381Z,102148.51
2018-11-04T01:46:13.902Z,102145.89
2018-11-04T01:48:43.201Z,102145.92
2018-11-04T01:51:12.393Z,102147.30
2018-11-04T01:53:42.010Z,102144.64
2018-11-04T01:56:11.205Z,102149.16
2018-11-04T01:58:40.390Z,102145.26
2018-11-04T02:01:09.898Z,102143.04
2018-11-04T02:03:38.999Z,102142.14
2018-11-04T02:06:08.101Z,102148.28
2018-11-04T02:08:37.531Z,102143.39
2018-11-04T02:11:06.704Z,102145.17
2018-11-04T02:13:36.037Z,102139.84
2018-11-04T02:16:06.580Z,102138.06
2018-11-04T02:18:35.675Z,102131.88
2018-11-04T02:21:05.029Z,102133.20
2018-11-04T02:23:35.281Z,102123.19
2018-11-04T02:26:04.392Z,102128.02
2018-11-04T02:28:33.533Z,102131.12
2018-11-04T02:31:03.145Z,102132.44
2018-11-04T02:33:32.218Z,102127.59
2018-11-04T02:36:01.429Z,102130.63
2018-11-04T02:38:30.953Z,102129.73
2018-11-04T02:41:00.136Z,102132.91
2018-11-04T02:43:29.329Z,102125.91
2018-11-04T02:45:59.052Z,102135.59
2018-11-04T02:48:28.386Z,102141.75
2018-11-04T02:50:57.481Z,102143.05
2018-11-04T02:53:26.982Z,102143.86
2018-11-04T02:55:56.149Z,102143.79
2018-11-04T02:58:25.289Z,102143.75
2018-11-04T03:00:54.749Z,102137.50
2018-11-04T03:03:24.033Z,102138.08
2018-11-04T03:05:53.305Z,102143.47
2018-11-04T03:08:22.703Z,102135.61
2018-11-04T03:10:51.849Z,102129.36
2018-11-04T03:13:21.209Z,102139.05
2018-11-04T03:15:51.397Z,102141.63
2018-11-04T03:18:20.557Z,102137.59
2018-11-04T03:20:49.758Z,102126.91
2018-11-04T03:23:19.373Z,102133.52
2018-11-04T03:25:48.554Z,102121.61
2018-11-04T03:28:17.757Z,102129.16
2018-11-04T03:30:47.373Z,102122.10
2018-11-04T03:33:16.605Z,102122.98
2018-11-04T03:35:45.866Z,102125.61
2018-11-04T03:38:15.475Z,102115.92
2018-11-04T03:40:44.681Z,102123.42
2018-11-04T03:43:13.864Z,102118.55
2018-11-04T03:45:43.335Z,102122.31
2018-11-04T03:48:12.461Z,102124.06
2018-11-04T03:50:41.567Z,102121.84
2018-11-04T03:53:10.993Z,102106.84
2018-11-04T03:55:40.167Z,102111.69
2018-11-04T03:58:09.294Z,102114.79
2018-11-04T04:00:38.713Z,102114.00
2018-11-04T04:03:07.813Z,102113.59
2018-11-04T04:05:36.945Z,102111.95
2018-11-04T04:08:06.907Z,102121.21
2018-11-04T04:10:36.049Z,102111.06
2018-11-04T04:13:05.572Z,102105.28
2018-11-04T04:15:35.093Z,102112.75
2018-11-04T04:18:04.276Z,102109.70
2018-11-04T04:20:33.466Z,102104.94
2018-11-04T04:23:02.976Z,102114.20
2018-11-04T04:25:32.205Z,102109.02
2018-11-04T04:28:01.304Z,102111.23
2018-11-04T04:30:30.883Z,102115.18
2018-11-04T04:32:59.990Z,102118.67
2018-11-04T04:35:29.153Z,102120.41
2018-11-04T04:37:58.671Z,102117.34
2018-11-04T04:40:27.966Z,102113.81
2018-11-04T04:42:57.173Z,102118.66
2018-11-04T04:45:26.781Z,102113.77
2018-11-04T04:47:55.977Z,102122.10
2018-11-04T04:50:25.157Z,102118.95
2018-11-04T04:52:54.777Z,102122.41
2018-11-04T04:55:23.961Z,102125.03
2018-11-04T04:57:53.069Z,102125.85
2018-11-04T05:00:22.578Z,102130.69
2018-11-04T05:02:51.654Z,102129.79
2018-11-04T05:05:20.838Z,102138.64
2018-11-04T05:07:50.372Z,102140.80
2018-11-04T05:10:19.568Z,102135.93
2018-11-04T05:12:48.648Z,102144.70
2018-11-04T05:15:18.271Z,102139.81
2018-11-04T05:17:47.357Z,102144.22
2018-11-04T05:20:16.557Z,102137.59
2018-11-04T05:22:45.965Z,102134.96
2018-11-04T05:25:15.181Z,102138.04
2018-11-04T05:27:44.349Z,102134.52
2018-11-04T05:30:13.865Z,102135.86
2018-11-04T05:32:43.057Z,102138.08
2018-11-04T05:35:12.165Z,102150.94
2018-11-04T05:37:41.770Z,102137.67
2018-11-04T05:40:10.964Z,102142.13
2018-11-04T05:42:40.165Z,102141.30
2018-11-04T05:45:09.987Z,102141.73
2018-11-04T05:47:39.149Z,102145.31
2018-11-04T05:50:08.397Z,102153.70
2018-11-04T05:52:38.317Z,102156.89
2018-11-04T05:55:08.332Z,102161.27
2018-11-04T05:57:37.781Z,102166.14
2018-11-04T06:00:08.713Z,102158.66
2018-11-04T06:02:37.802Z,102163.08
2018-11-04T06:05:07.877Z,102165.30
2018-11-04T06:07:37.570Z,102159.98
2018-11-04T06:10:07.209Z,102162.19
2018-11-04T06:12:36.627Z,102160.46
2018-11-04T06:15:06.933Z,102169.70
2018-11-04T06:17:36.264Z,102171.02
2018-11-04T06:20:06.859Z,102171.91
2018-11-04T06:22:36.023Z,102172.31
2018-11-04T06:25:05.527Z,102184.20
2018-11-04T06:27:35.090Z,102178.03
2018-11-04T06:30:05.481Z,102185.03
2018-11-04T06:32:35.789Z,102177.55
2018-11-04T06:35:05.741Z,102177.91
2018-11-04T06:37:35.069Z,102185.44
2018-11-04T06:40:04.913Z,102189.34
2018-11-04T06:42:34.217Z,102175.57
2018-11-04T06:45:03.448Z,102182.08
2018-11-04T06:47:32.887Z,102182.02
2018-11-04T06:50:02.027Z,102192.52
2018-11-04T06:52:31.185Z,102196.02
2018-11-04T06:55:00.720Z,102192.35
2018-11-04T06:57:29.829Z,102201.12
2018-11-04T06:59:58.964Z,102201.95
2018-11-04T07:02:28.415Z,102210.28
2018-11-04T07:04:57.697Z,102214.17
2018-11-04T07:07:26.901Z,102211.03
2018-11-04T07:09:56.042Z,102210.89
2018-11-04T07:12:25.133Z,102216.88
2018-11-04T07:14:54.297Z,102213.98
2018-11-04T07:17:23.409Z,102216.83
2018-11-04T07:19:52.519Z,102219.77
2018-11-04T07:22:21.840Z,102220.03
2018-11-04T07:24:51.093Z,102211.96
2018-11-04T07:27:20.305Z,102215.34
2018-11-04T07:29:49.480Z,102211.70
2018-11-04T07:32:18.995Z,102208.13
2018-11-04T07:34:48.177Z,102205.08
2018-11-04T07:37:17.381Z,102207.62
2018-11-04T07:39:46.785Z,102214.08
2018-11-04T07:42:15.865Z,102215.72
2018-11-04T07:44:45.961Z,102216.16
2018-11-04T07:47:15.397Z,102223.55
2018-11-04T07:49:44.499Z,102217.30
2018-11-04T07:52:14.017Z,102220.74
2018-11-04T07:54:43.421Z,102217.20
2018-11-04T07:57:12.643Z,102221.89
2018-11-04T07:59:41.854Z,102224.88
2018-11-04T08:02:11.254Z,102220.66
2018-11-04T08:04:40.397Z,102227.23
2018-11-04T08:07:09.599Z,102229.53
2018-11-04T08:09:39.053Z,102218.87
2018-11-04T08:12:08.201Z,102215.06
2018-11-04T08:14:37.485Z,102222.36
2018-11-04T08:17:06.977Z,102227.23
2018-11-04T08:19:36.305Z,102221.78
2018-11-04T08:22:05.702Z,102218.61
2018-11-04T08:24:34.947Z,102222.02
2018-11-04T08:27:04.103Z,102222.44
2018-11-04T08:29:33.286Z,102225.94
2018-11-04T08:32:02.906Z,102226.42
2018-11-04T08:34:32.102Z,102221.95
2018-11-04T08:37:01.229Z,102225.48
2018-11-04T08:39:30.805Z,102223.59
2018-11-04T08:42:00.137Z,102218.66
2018-11-04T08:44:29.368Z,102217.30
2018-11-04T08:46:58.526Z,102221.26
2018-11-04T08:49:27.649Z,102217.19
2018-11-04T08:51:57.741Z,102222.84
2018-11-04T08:54:27.593Z,102218.42
2018-11-04T08:56:57.318Z,102223.58
2018-11-04T08:59:26.781Z,102222.20
2018-11-04T09:01:55.957Z,102221.08
2018-11-04T09:04:26.007Z,102221.36
2018-11-04T09:06:55.125Z,102217.64
2018-11-04T09:09:24.230Z,102221.48
2018-11-04T09:11:53.319Z,102226.73
2018-11-04T09:14:22.522Z,102215.52
2018-11-04T09:16:51.715Z,102207.94
2018-11-04T09:19:20.818Z,102211.52
2018-11-04T09:21:50.495Z,102210.75
2018-11-04T09:24:19.583Z,102211.92
2018-11-04T09:26:48.689Z,102217.05
2018-11-04T09:29:17.882Z,102215.19
2018-11-04T09:31:47.358Z,102208.90
2018-11-04T09:34:16.622Z,102217.36
2018-11-04T09:36:45.821Z,102211.77
2018-11-04T09:39:15.142Z,102207.93
2018-11-04T09:41:44.282Z,102206.14
2018-11-04T09:44:13.477Z,102203.89
2018-11-04T09:46:42.705Z,102203.47
2018-11-04T09:49:11.938Z,102210.59
2018-11-04T09:51:41.106Z,102209.42
2018-11-04T09:54:10.401Z,102204.39
2018-11-04T09:56:39.722Z,102205.72
2018-11-04T09:59:08.802Z,102209.72
2018-11-04T10:01:38.318Z,102205.72
2018-11-04T10:04:07.566Z,102209.60
2018-11-04T10:06:36.716Z,102203.44
2018-11-04T10:09:08.123Z,102201.72
2018-11-04T10:11:37.289Z,102203.89
2018-11-04T10:14:06.994Z,102202.02
2018-11-04T10:16:36.673Z,102207.77
2018-11-04T10:19:06.123Z,102204.19
2018-11-04T10:21:35.081Z,102198.44
2018-11-04T10:24:04.676Z,102206.44
2018-11-04T10:26:33.813Z,102196.61
2018-11-04T10:29:03.212Z,102201.44
2018-11-04T10:31:32.341Z,102203.11
2018-11-04T10:34:01.980Z,102197.44
2018-11-04T10:36:31.084Z,102200.94
2018-11-04T10:39:00.645Z,102202.77
2018-11-04T10:41:29.735Z,102201.02
2018-11-04T10:43:58.821Z,102204.82
2018-11-04T10:46:27.937Z,102205.28
2018-11-04T10:48:57.017Z,102201.86
2018-11-04T10:51:26.264Z,102195.03
2018-11-04T10:53:55.577Z,102187.95
2018-11-04T10:56:24.812Z,102196.11
2018-11-04T10:58:53.903Z,102189.78
2018-11-04T11:01:23.357Z,102190.73
2018-11-04T11:03:52.567Z,102181.23
2018-11-04T11:06:21.828Z,102188.81
2018-11-04T11:08:51.073Z,102187.80
2018-11-04T11:11:20.249Z,102184.58
2018-11-04T11:13:49.557Z,102180.81
2018-11-04T11:16:18.773Z,102179.67
2018-11-04T11:18:47.998Z,102177.66
2018-11-04T11:21:17.197Z,102172.13
2018-11-04T11:23:46.362Z,102176.45
2018-11-04T11:26:15.469Z,102174.38
2018-11-04T11:28:44.570Z,102173.18
2018-11-04T11:31:13.749Z,102175.16
2018-11-04T11:33:43.003Z,102170.14
2018-11-04T11:36:12.093Z,102168.14
2018-11-04T11:38:41.411Z,102165.08
2018-11-04T11:41:10.895Z,102158.56
2018-11-04T11:43:40.021Z,102167.05
2018-11-04T11:46:09.253Z,102161.59
2018-11-04T11:48:38.421Z,102168.23
2018-11-04T11:51:07.605Z,102162.98
2018-11-04T11:53:36.830Z,102155.64
2018-11-04T11:56:06.124Z,102158.50
2018-11-04T11:58:35.410Z,102149.23
2018-11-04T12:01:05.257Z,102144.23
2018-11-04T12:03:34.370Z,102141.59
2018-11-04T12:06:03.509Z,102146.02
2018-11-04T12:08:32.733Z,102138.93
2018-11-04T12:11:02.093Z,102135.92
2018-11-04T12:13:31.200Z,102131.63
2018-11-04T12:16:00.821Z,102128.86
2018-11-04T12:18:30.022Z,102130.89
2018-11-04T12:20:59.133Z,102127.67
2018-11-04T12:23:28.259Z,102124.22
2018-11-04T12:25:57.642Z,102115.08
2018-11-04T12:28:26.806Z,102113.12
2018-11-04T12:30:56.325Z,102112.71
2018-11-04T12:33:25.493Z,102107.23
2018-11-04T12:35:54.583Z,102087.73
2018-11-04T12:38:24.058Z,102088.87
2018-11-04T12:40:53.204Z,102084.03
2018-11-04T12:43:22.424Z,102090.29
2018-11-04T12:45:52.028Z,102083.03
2018-11-04T12:48:21.230Z,102082.30
2018-11-04T12:50:50.318Z,102079.14
2018-11-04T12:53:19.941Z,102076.66
2018-11-04T12:55:49.809Z,102078.53
2018-11-04T12:58:18.920Z,102080.28
2018-11-04T13:00:48.325Z,102082.14
2018-11-04T13:03:17.605Z,102084.98
2018-11-04T13:05:47.316Z,102089.28
2018-11-04T13:08:16.433Z,102085.86
2018-11-04T13:10:45.529Z,102086.07
2018-11-04T13:13:14.810Z,102093.88
2018-11-04T13:15:44.265Z,102093.13
2018-11-04T13:18:13.417Z,102091.52
2018-11-04T13:20:42.513Z,102089.42
2018-11-04T13:23:11.737Z,102083.81
2018-11-04T13:25:40.997Z,102086.08
2018-11-04T13:28:10.205Z,102084.28
2018-11-04T13:30:39.460Z,102087.25
2018-11-04T13:33:08.557Z,102078.98
2018-11-04T13:35:37.721Z,102089.58
2018-11-04T13:38:07.309Z,102087.72
2018-11-04T13:40:36.401Z,102080.03
2018-11-04T13:43:05.917Z,102077.36
2018-11-04T13:45:35.262Z,102081.14
2018-11-04T13:48:04.378Z,102069.80
2018-11-04T13:50:33.509Z,102075.29
2018-11-04T13:53:02.626Z,102075.81
2018-11-04T13:55:31.716Z,102069.82
2018-11-04T13:58:00.885Z,102069.94
2018-11-04T14:00:30.421Z,102067.41
2018-11-04T14:02:59.594Z,102064.71
2018-11-04T14:05:28.789Z,102070.06
2018-11-04T14:07:57.914Z,102067.80
2018-11-04T14:10:27.090Z,102071.27
2018-11-04T14:12:56.331Z,102076.27
2018-11-04T14:15:25.592Z,102081.37
2018-11-04T14:17:54.809Z,102081.77
2018-11-04T14:20:24.084Z,102081.88
2018-11-04T14:22:53.393Z,102088.91
2018-11-04T14:25:22.563Z,102087.11
2018-11-04T14:27:51.663Z,102078.70
2018-11-04T14:30:20.829Z,102077.77
2018-11-04T14:32:49.969Z,102078.03
2018-11-04T14:35:19.160Z,102077.67
2018-11-04T14:37:48.625Z,102083.55
2018-11-04T14:40:17.758Z,102091.82
2018-11-04T14:42:46.957Z,102092.79
2018-11-04T14:45:16.185Z,102095.52
2018-11-04T14:47:45.397Z,102099.47
2018-11-04T14:50:15.933Z,102099.00
2018-11-04T14:52:45.113Z,102098.55
2018-11-04T14:55:14.473Z,102095.36
2018-11-04T14:57:43.621Z,102101.05
2018-11-04T15:00:14.241Z,102097.38
2018-11-04T15:02:43.363Z,102095.97
2018-11-04T15:05:12.925Z,102087.52
2018-11-04T15:07:42.099Z,102093.00
2018-11-04T15:10:13.440Z,102095.53
2018-11-04T15:12:42.569Z,102090.61
2018-11-04T15:15:14.061Z,102096.95
2018-11-04T15:17:43.325Z,102095.84
2018-11-04T15:20:12.831Z,102096.30
2018-11-04T15:22:51.733Z,102096.52
2018-11-04T15:25:21.913Z,102098.36
2018-11-04T15:27:51.189Z,102098.20
2018-11-04T15:30:20.398Z,102099.71
2018-11-04T15:32:49.743Z,102100.89
2018-11-04T15:35:19.104Z,102093.19
2018-11-04T15:37:48.242Z,102093.69
2018-11-04T15:40:17.711Z,102097.59
2018-11-04T15:42:46.907Z,102089.31
2018-11-04T15:45:16.713Z,102082.23
2018-11-04T15:47:45.816Z,102087.89
2018-11-04T15:50:17.281Z,102086.41
2018-11-04T15:52:46.881Z,102075.87
2018-11-04T15:55:16.456Z,102069.50
2018-11-04T16:00:15.042Z,102069.79
2018-11-04T16:02:44.349Z,102074.36
2018-11-04T16:05:13.569Z,102075.44
2018-11-04T16:07:42.722Z,102077.14
2018-11-04T16:10:12.598Z,102066.03
2018-11-04T16:12:42.031Z,102076.69
2018-11-04T16:15:13.337Z,102074.86
2018-11-04T16:17:43.123Z,102072.69
2018-11-04T16:20:13.670Z,102071.28
2018-11-04T16:22:43.480Z,102076.11
2018-11-04T16:25:13.277Z,102075.70
2018-11-04T16:27:43.113Z,102079.23
2018-11-04T16:30:13.513Z,102073.48
2018-11-04T16:32:42.681Z,102077.06
2018-11-04T16:35:12.958Z,102075.77
2018-11-04T16:37:42.990Z,102074.34
2018-11-04T16:40:12.133Z,102067.84
2018-11-04T16:42:41.364Z,102074.41
2018-11-04T16:45:12.826Z,102077.58
2018-11-04T16:47:42.556Z,102078.11
2018-11-04T16:50:12.765Z,102084.23
2018-11-04T16:52:42.496Z,102081.03
2018-11-04T16:55:12.437Z,102072.70
2018-11-04T16:57:41.869Z,102070.05
2018-11-04T17:00:11.726Z,102079.66
2018-11-04T17:02:40.953Z,102083.36
2018-11-04T17:05:11.293Z,102088.77
2018-11-04T17:07:40.625Z,102085.11
2018-11-04T17:10:10.089Z,102085.91
2018-11-04T17:12:39.670Z,102080.39
2018-11-04T17:15:10.537Z,102079.74
2018-11-04T17:17:39.646Z,102080.58
2018-11-04T17:20:13.397Z,102080.05
2018-11-04T17:22:43.269Z,102077.42
2018-11-04T17:25:12.875Z,102072.91
2018-11-04T17:27:43.254Z,102079.21
2018-11-04T17:30:16.268Z,102075.52
2018-11-04T17:32:45.961Z,102083.58
2018-11-04T17:35:15.989Z,102079.73
2018-11-04T17:37:45.599Z,102080.27
2018-11-04T17:40:15.573Z,102091.18
2018-11-04T17:42:45.167Z,102089.44
2018-11-04T17:45:15.940Z,102082.67
2018-11-04T17:47:45.659Z,102083.54
2018-11-04T17:50:17.452Z,102077.11
2018-11-04T17:52:46.642Z,102078.52
2018-11-04T17:55:16.166Z,102088.67
2018-11-04T17:57:45.449Z,102092.85
2018-11-04T18:00:15.833Z,102085.52
2018-11-04T18:02:45.029Z,102094.16
2018-11-04T18:05:15.331Z,102086.44
2018-11-04T18:07:44.901Z,102093.47
2018-11-04T18:10:14.891Z,102094.91
2018-11-04T18:12:44.165Z,102086.34
2018-11-04T18:15:14.381Z,102088.94
2018-11-04T18:17:43.617Z,102087.52
2018-11-04T18:20:13.145Z,102083.45
2018-11-04T18:22:42.837Z,102081.32
2018-11-04T18:25:12.580Z,102081.48
2018-11-04T18:27:41.717Z,102072.77
2018-11-04T18:30:13.415Z,102076.89
2018-11-04T18:32:43.113Z,102082.97
2018-11-04T18:35:12.340Z,102081.19
2018-11-04T18:37:41.825Z,102080.84
2018-11-04T18:40:13.805Z,102082.86
2018-11-04T18:42:43.495Z,102082.06
2018-11-04T18:45:13.933Z,102082.25
2018-11-04T18:47:43.777Z,102083.63
2018-11-04T18:50:14.032Z,102081.88
2018-11-04T18:52:43.272Z,102083.17
2018-11-04T18:55:12.897Z,102079.59
2018-11-04T18:57:42.982Z,102071.64
2018-11-04T19:00:14.992Z,102071.75
2018-11-04T19:02:44.547Z,102067.44
2018-11-04T19:05:13.723Z,102067.66
2018-11-04T19:07:43.145Z,102064.75
2018-11-04T19:10:15.253Z,102057.25
2018-11-04T19:12:44.769Z,102066.58
2018-11-04T19:15:14.042Z,102064.00
2018-11-04T19:17:43.285Z,102058.38
2018-11-04T19:20:14.109Z,102058.05
2018-11-04T19:22:43.359Z,102050.64
2018-11-04T19:25:13.564Z,102053.26
2018-11-04T19:27:43.135Z,102050.59
2018-11-04T19:30:15.640Z,102059.59
2018-11-04T19:32:45.163Z,102055.97
2018-11-04T19:35:15.198Z,102042.44
2018-11-04T19:37:44.305Z,102049.80
2018-11-04T19:40:14.804Z,102048.47
2018-11-04T19:42:44.747Z,102046.72
2018-11-04T19:45:14.033Z,102043.19
2018-11-04T19:47:43.577Z,102044.01
2018-11-04T19:50:13.617Z,102039.73
2018-11-04T19:52:43.334Z,102044.55
2018-11-04T19:55:13.309Z,102047.27
2018-11-04T19:57:42.478Z,102046.76
2018-11-04T20:00:13.310Z,102049.09
2018-11-04T20:02:42.601Z,102043.02
2018-11-04T20:05:12.921Z,102045.94
2018-11-04T20:07:42.405Z,102046.47
2018-11-04T20:10:14.953Z,102048.34
2018-11-04T20:12:49.585Z,102049.75
2018-11-04T20:15:19.035Z,102041.44
2018-11-04T20:17:49.080Z,102034.53
2018-11-04T20:20:20.316Z,102037.48
2018-11-04T20:22:49.409Z,102042.02
2018-11-04T20:25:24.009Z,102034.81
2018-11-04T20:27:56.199Z,102041.35
2018-11-04T20:30:25.794Z,102036.23
2018-11-04T20:33:00.361Z,102035.95
2018-11-04T20:35:29.492Z,102034.19
2018-11-04T20:37:59.374Z,102041.66
2018-11-04T20:40:33.929Z,102045.43
2018-11-04T20:43:03.129Z,102049.43
2018-11-04T20:45:32.461Z,102035.04
2018-11-04T20:48:06.837Z,102036.97
2018-11-04T20:50:41.090Z,102033.95
2018-11-04T20:53:10.641Z,102024.30
2018-11-04T20:55:45.022Z,102030.95
2018-11-04T20:58:14.247Z,102026.91
2018-11-04T21:00:43.689Z,102025.21
2018-11-04T21:03:12.825Z,102021.75
2018-11-04T21:05:43.036Z,102026.41
2018-11-04T21:08:12.257Z,102018.48
2018-11-04T21:10:41.369Z,102014.62
2018-11-04T21:13:10.597Z,102019.18
2018-11-04T21:15:39.807Z,102020.73
2018-11-04T21:18:08.954Z,102012.38
2018-11-04T21:20:38.676Z,102013.30
2018-11-04T21:23:07.865Z,102010.67
2018-11-04T21:25:37.097Z,102012.37
2018-11-04T21:28:06.385Z,102003.08
2018-11-04T21:30:36.808Z,101999.17
2018-11-04T21:33:06.388Z,102004.17
2018-11-04T21:35:35.590Z,102001.97
2018-11-04T21:38:04.929Z,102002.52
2018-11-04T21:40:34.842Z,101998.99
2018-11-04T21:43:04.097Z,101998.25
2018-11-04T21:45:33.200Z,101999.71
2018-11-04T21:48:02.441Z,102002.13
2018-11-04T21:50:31.565Z,101997.14
2018-11-04T21:53:00.710Z,101990.98
2018-11-04T21:55:30.122Z,101998.73
2018-11-04T21:57:59.195Z,101990.94
2018-11-04T22:00:28.305Z,101987.61
2018-11-04T22:02:57.782Z,101986.33
2018-11-04T22:05:26.674Z,101981.55
2018-11-04T22:07:55.898Z,101977.59
2018-11-04T22:10:25.192Z,101979.59
2018-11-04T22:12:54.370Z,101973.70
2018-11-04T22:15:23.573Z,101977.97
2018-11-04T22:17:53.854Z,101974.17
2018-11-04T22:20:22.996Z,101966.27
2018-11-04T22:22:52.190Z,101963.23
2018-11-04T22:25:21.733Z,101968.77
2018-11-04T22:27:50.935Z,101961.59
2018-11-04T22:30:20.541Z,101954.11
2018-11-04T22:32:49.722Z,101960.98
2018-11-04T22:35:18.962Z,101965.70
2018-11-04T22:37:48.070Z,101960.47
2018-11-04T22:40:17.317Z,101960.78
2018-11-04T22:42:46.426Z,101960.27
2018-11-04T22:45:15.952Z,101960.05
2018-11-04T22:47:45.074Z,101951.19
2018-11-04T22:50:15.387Z,101949.06
2018-11-04T22:52:45.013Z,101949.21
2018-11-04T22:55:15.076Z,101948.23
2018-11-04T22:57:44.676Z,101947.81
2018-11-04T23:00:19.682Z,101943.80
2018-11-04T23:02:49.947Z,101947.58
2018-11-04T23:05:24.833Z,101940.27
2018-11-04T23:07:53.977Z,101936.05
2018-11-04T23:10:23.261Z,101937.22
2018-11-04T23:12:52.733Z,101935.53
2018-11-04T23:15:21.938Z,101929.59
2018-11-04T23:17:51.142Z,101926.81
2018-11-04T23:20:20.326Z,101916.94
2018-11-04T23:22:49.453Z,101918.45
2018-11-04T23:25:18.669Z,101921.00
2018-11-04T23:27:47.814Z,101913.45
2018-11-04T23:30:18.419Z,101913.59
2018-11-04T23:32:48.498Z,101916.53
2018-11-04T23:35:17.768Z,101914.57
2018-11-04T23:37:46.958Z,101919.80
2018-11-04T23:40:16.582Z,101921.30
2018-11-04T23:42:45.789Z,101914.56
2018-11-04T23:45:15.498Z,101917.81
2018-11-04T23:47:45.073Z,101921.02
2018-11-04T23:50:15.377Z,101915.37
2018-11-04T23:52:44.961Z,101914.92
2018-11-04T23:55:14.875Z,101915.56
2018-11-04T23:57:44.024Z,101915.80
